V Uno — 9HA3906 — position and weather

sailwx.info

Track history (hours):
 
Tides and Currents Weather Stations Pressure Air Temp Water Temp Dewpoint Dewpoint Depression Visibility Wind Speed Wind Dir Waves Ship Positions

V Uno

Last reported at 2018-Jun-21 21:23 UTC. Time now 2018-Jun-25 02:22 UTC.
Position N 01°30' E 103°08'.

Length 181 m; draft 10.6 m.

Type: Cargo ship. MMSI: 256408000.

Date/timePositionNaut miles runAvg speedWind from/ knotsBaromVisibWave heightAir tempDewpointWater temp
2018-Jun-21 21:23N 01°30' E 103°08'511.5
2018-Jun-21 20:57N 01°27' E 103°12'611.4
2018-Jun-21 20:26N 01°23' E 103°16'612.1
2018-Jun-21 19:56N 01°19' E 103°20'512.1
2018-Jun-21 19:30N 01°15' E 103°24'612.4
2018-Jun-21 19:00N 01°12' E 103°30'612.1
2018-Jun-21 18:30N 01°12' E 103°36'611.2
2018-Jun-21 18:01N 01°10' E 103°41'5 9.7
2018-Jun-21 17:31N 01°09' E 103°46'5 9.4
2018-Jun-21 17:00N 01°11' E 103°50'511.3
2018-Jun-21 16:30N 01°14' E 103°55'3 6.1
2018-Jun-21 16:00N 01°16' E 103°57'1 2.8
2018-Jun-21 15:29N 01°17' E 103°56'0 0.1
2018-Jun-21 14:58N 01°17' E 103°56'0 0.0
2018-Jun-21 14:26N 01°17' E 103°56'0 0.0
2018-Jun-21 13:53N 01°17' E 103°56'0 0.0
2018-Jun-21 13:29N 01°17' E 103°56'0 0.0
2018-Jun-21 12:56N 01°17' E 103°56'0 0.0
2018-Jun-21 12:29N 01°17' E 103°56'0 0.0
2018-Jun-21 11:56N 01°17' E 103°56'0 0.0
2018-Jun-21 11:26N 01°17' E 103°56'0 0.0
2018-Jun-21 10:59N 01°17' E 103°56'0 0.0
2018-Jun-21 10:29N 01°17' E 103°56'0 0.0
2018-Jun-21 09:55N 01°17' E 103°56'0 0.0
2018-Jun-21 09:29N 01°17' E 103°56'0 0.0
2018-Jun-21 08:49N 01°17' E 103°56'0 0.0
2018-Jun-21 08:25N 01°17' E 103°56'0 0.0
2018-Jun-21 07:53N 01°17' E 103°56'0 0.1
2018-Jun-21 07:23N 01°17' E 103°56'0 0.3
2018-Jun-21 07:00N 01°17' E 103°56'2 4.5
2018-Jun-21 06:30N 01°16' E 103°58'2 4.9
2018-Jun-21 06:00N 01°16' E 104°00'4 8.6
2018-Jun-21 05:30N 01°16' E 104°04'3 6.3
2018-Jun-21 04:59N 01°17' E 104°08'1 1.8
2018-Jun-21 04:29N 01°17' E 104°09'3 5.5
2018-Jun-21 03:59N 01°17' E 104°11'4 7.4
2018-Jun-21 03:30N 01°18' E 104°15'4 7.1
2018-Jun-21 02:59N 01°18' E 104°18'4 7.8
2018-Jun-21 02:26N 01°21' E 104°22'5 9.3
2018-Jun-21 01:56N 01°24' E 104°25'3010.4
2018-Jun-20 23:00N 01°49' E 104°43'  
2018-Jun-13 03:25N 30°40' E 123°23'810.6
2018-Jun-13 02:38N 30°47' E 123°17'210.9
2018-Jun-13 02:26N 30°48' E 123°15'410.6
2018-Jun-13 02:00N 30°51' E 123°11'710.3
2018-Jun-13 01:18N 30°55' E 123°04'310.5
2018-Jun-13 01:00N 30°57' E 123°01'510.2
2018-Jun-13 00:30N 31°00' E 122°56'5 9.6
2018-Jun-13 00:00N 31°03' E 122°52'4 7.6
2018-Jun-12 23:29N 31°06' E 122°48'2 3.3
2018-Jun-12 23:00N 31°06' E 122°46'4 8.7
2018-Jun-12 22:30N 31°06' E 122°41'4 4.6
2018-Jun-12 21:43N 31°06' E 122°37'1 4.7
2018-Jun-12 21:29N 31°06' E 122°36'4 8.9
2018-Jun-12 21:00N 31°06' E 122°31'4 8.1
2018-Jun-12 20:30N 31°06' E 122°26'510.2
2018-Jun-12 20:00N 31°06' E 122°20'612.6
2018-Jun-12 19:30N 31°09' E 122°14'714.6
2018-Jun-12 19:00N 31°13' E 122°07'714.4
2018-Jun-12 18:29N 31°15' E 121°58'1312.9
2018-Jun-12 17:29N 31°19' E 121°44'7310.2
2018-Jun-12 10:23N 32°00' E 120°34'612.6
2018-Jun-12 09:55N 32°02' E 120°28'410.3
2018-Jun-12 09:29N 32°00' E 120°23'2 3.5
2018-Jun-12 09:00N 32°02' E 120°24'  
Track history (hours):
 
Tides and Currents Weather Stations Pressure Air Temp Water Temp Dewpoint Dewpoint Depression Visibility Wind Speed Wind Dir Waves Ship Positions

V Uno

Last reported at 2018-Jun-21 21:23 UTC. Time now 2018-Jun-25 02:22 UTC.
Position N 01°30' E 103°08'.

Length 181 m; draft 10.6 m.

Type: Cargo ship. MMSI: 256408000.

Date/timePositionNaut miles runAvg speedWind from/ knotsBaromVisibWave heightAir tempDewpointWater temp
2018-Jun-21 21:23N 01°30' E 103°08'511.5
2018-Jun-21 20:57N 01°27' E 103°12'611.4
2018-Jun-21 20:26N 01°23' E 103°16'612.1
2018-Jun-21 19:56N 01°19' E 103°20'512.1
2018-Jun-21 19:30N 01°15' E 103°24'612.4
2018-Jun-21 19:00N 01°12' E 103°30'612.1
2018-Jun-21 18:30N 01°12' E 103°36'611.2
2018-Jun-21 18:01N 01°10' E 103°41'5 9.7
2018-Jun-21 17:31N 01°09' E 103°46'5 9.4
2018-Jun-21 17:00N 01°11' E 103°50'511.3
2018-Jun-21 16:30N 01°14' E 103°55'3 6.1
2018-Jun-21 16:00N 01°16' E 103°57'1 2.8
2018-Jun-21 15:29N 01°17' E 103°56'0 0.1
2018-Jun-21 14:58N 01°17' E 103°56'0 0.0
2018-Jun-21 14:26N 01°17' E 103°56'0 0.0
2018-Jun-21 13:53N 01°17' E 103°56'0 0.0
2018-Jun-21 13:29N 01°17' E 103°56'0 0.0
2018-Jun-21 12:56N 01°17' E 103°56'0 0.0
2018-Jun-21 12:29N 01°17' E 103°56'0 0.0
2018-Jun-21 11:56N 01°17' E 103°56'0 0.0
2018-Jun-21 11:26N 01°17' E 103°56'0 0.0
2018-Jun-21 10:59N 01°17' E 103°56'0 0.0
2018-Jun-21 10:29N 01°17' E 103°56'0 0.0
2018-Jun-21 09:55N 01°17' E 103°56'0 0.0
2018-Jun-21 09:29N 01°17' E 103°56'0 0.0
2018-Jun-21 08:49N 01°17' E 103°56'0 0.0
2018-Jun-21 08:25N 01°17' E 103°56'0 0.0
2018-Jun-21 07:53N 01°17' E 103°56'0 0.1
2018-Jun-21 07:23N 01°17' E 103°56'0 0.3
2018-Jun-21 07:00N 01°17' E 103°56'2 4.5
2018-Jun-21 06:30N 01°16' E 103°58'2 4.9
2018-Jun-21 06:00N 01°16' E 104°00'4 8.6
2018-Jun-21 05:30N 01°16' E 104°04'3 6.3
2018-Jun-21 04:59N 01°17' E 104°08'1 1.8
2018-Jun-21 04:29N 01°17' E 104°09'3 5.5
2018-Jun-21 03:59N 01°17' E 104°11'4 7.4
2018-Jun-21 03:30N 01°18' E 104°15'4 7.1
2018-Jun-21 02:59N 01°18' E 104°18'4 7.8
2018-Jun-21 02:26N 01°21' E 104°22'5 9.3
2018-Jun-21 01:56N 01°24' E 104°25'3010.4
2018-Jun-20 23:00N 01°49' E 104°43'  
2018-Jun-13 03:25N 30°40' E 123°23'810.6
2018-Jun-13 02:38N 30°47' E 123°17'210.9
2018-Jun-13 02:26N 30°48' E 123°15'410.6
2018-Jun-13 02:00N 30°51' E 123°11'710.3
2018-Jun-13 01:18N 30°55' E 123°04'310.5
2018-Jun-13 01:00N 30°57' E 123°01'510.2
2018-Jun-13 00:30N 31°00' E 122°56'5 9.6
2018-Jun-13 00:00N 31°03' E 122°52'4 7.6
2018-Jun-12 23:29N 31°06' E 122°48'2 3.3
2018-Jun-12 23:00N 31°06' E 122°46'4 8.7
2018-Jun-12 22:30N 31°06' E 122°41'4 4.6
2018-Jun-12 21:43N 31°06' E 122°37'1 4.7
2018-Jun-12 21:29N 31°06' E 122°36'4 8.9
2018-Jun-12 21:00N 31°06' E 122°31'4 8.1
2018-Jun-12 20:30N 31°06' E 122°26'510.2
2018-Jun-12 20:00N 31°06' E 122°20'612.6
2018-Jun-12 19:30N 31°09' E 122°14'714.6
2018-Jun-12 19:00N 31°13' E 122°07'714.4
2018-Jun-12 18:29N 31°15' E 121°58'1312.9
2018-Jun-12 17:29N 31°19' E 121°44'7310.2
2018-Jun-12 10:23N 32°00' E 120°34'612.6
2018-Jun-12 09:55N 32°02' E 120°28'410.3
2018-Jun-12 09:29N 32°00' E 120°23'2 3.5
2018-Jun-12 09:00N 32°02' E 120°24'  

Dump ship's entire track history